Time;durP1;ratioP1;P1;durP2;ratioP2;P2;SDS_P1;SDS_P2;PMS_P1;PMS_P2;Temp;Humidity;BMP_temperature;BMP_pressure;BME280_temperature;BME280_humidity;BME280_pressure;Samples;Min_cycle;Max_cycle;Signal;HPM_P1;HPM_P2
2023/03/09 00:02:12;;;;;;;9.57;2.70;;;;;;;;;;5018577;28;20041;-57
2023/03/09 00:04:38;;;;;;;5.53;2.22;;;;;;;;;;5020746;28;20056;-54
2023/03/09 00:07:03;;;;;;;26.17;3.65;;;;;;;;;;5021826;28;20125;-59
2023/03/09 00:09:29;;;;;;;7.68;2.42;;;;;;;;;;5021297;28;20060;-58
2023/03/09 00:11:54;;;;;;;5.82;2.45;;;;;;;;;;5025638;28;20117;-58
2023/03/09 00:14:21;;;;;;;7.38;3.58;;;;;;;;;;5024213;28;20136;-57
2023/03/09 00:16:46;;;;;;;8.15;2.83;;;;;;;;;;5024885;28;20072;-58
2023/03/09 00:19:12;;;;;;;4.95;2.40;;;;;;;;;;5023601;28;20065;-58
2023/03/09 00:21:39;;;;;;;5.47;2.70;;;;;;;;;;5020145;28;20037;-57
2023/03/09 00:24:11;;;;;;;6.93;2.97;;;;;;;;;;5035711;28;20367;-55
2023/03/09 00:26:38;;;;;;;7.18;2.85;;;;;;;;;;5028501;28;20040;-55
2023/03/09 00:29:04;;;;;;;5.18;2.60;;;;;;;;;;5024642;28;20258;-58
2023/03/09 00:31:30;;;;;;;9.00;3.03;;;;;;;;;;5022811;28;20036;-52
2023/03/09 00:33:55;;;;;;;6.18;2.75;;;;;;;;;;5024555;28;20033;-56
2023/03/09 00:36:20;;;;;;;8.02;2.70;;;;;;;;;;5013112;28;20037;-56
2023/03/09 00:38:53;;;;;;;5.50;2.58;;;;;;;;;;5023073;28;20038;-59
2023/03/09 00:41:19;;;;;;;7.70;2.75;;;;;;;;;;5016045;28;20033;-59
2023/03/09 00:43:44;;;;;;;5.10;2.50;;;;;;;;;;5032397;28;20056;-59
2023/03/09 00:46:09;;;;;;;8.45;2.30;;;;;;;;;;5021758;28;20072;-63
2023/03/09 00:48:38;;;;;;;4.53;1.63;;;;;;;;;;5024312;28;20467;-61
2023/03/09 00:51:04;;;;;;;6.55;1.80;;;;;;;;;;5026179;28;20044;-63
2023/03/09 00:53:29;;;;;;;3.60;1.48;;;;;;;;;;5021591;28;20026;-61
2023/03/09 00:55:54;;;;;;;3.55;1.50;;;;;;;;;;5023387;28;20033;-62
2023/03/09 00:58:20;;;;;;;2.05;1.40;;;;;;;;;;5022458;28;20050;-61
2023/03/09 01:00:45;;;;;;;3.75;1.45;;;;;;;;;;5022752;28;20057;-62
2023/03/09 01:03:10;;;;;;;2.05;1.42;;;;;;;;;;5022060;28;20065;-61
2023/03/09 01:05:37;;;;;;;2.92;1.75;;;;;;;;;;5024200;28;20037;-61
2023/03/09 01:08:02;;;;;;;4.15;1.58;;;;;;;;;;5023978;28;20022;-60
2023/03/09 01:10:29;;;;;;;2.20;1.65;;;;;;;;;;5023235;28;20887;-60
2023/03/09 01:12:55;;;;;;;4.65;1.58;;;;;;;;;;5024113;28;20042;-62
2023/03/09 01:15:20;;;;;;;2.78;1.30;;;;;;;;;;5020534;28;20760;-62
2023/03/09 01:17:47;;;;;;;2.90;1.50;;;;;;;;;;5022359;28;20096;-61
2023/03/09 01:20:13;;;;;;;2.38;1.40;;;;;;;;;;5020323;28;20390;-61
2023/03/09 01:22:38;;;;;;;4.15;1.77;;;;;;;;;;5022979;28;20496;-62
2023/03/09 01:25:04;;;;;;;2.05;1.42;;;;;;;;;;5021951;28;20477;-61
2023/03/09 01:27:30;;;;;;;2.00;1.60;;;;;;;;;;5024206;28;20047;-61
2023/03/09 01:29:55;;;;;;;4.32;1.67;;;;;;;;;;5022136;28;20458;-61
2023/03/09 01:32:20;;;;;;;3.17;1.85;;;;;;;;;;5022813;28;20036;-61
2023/03/09 01:34:46;;;;;;;5.35;2.45;;;;;;;;;;5026668;28;20032;-61
2023/03/09 01:37:11;;;;;;;7.50;2.38;;;;;;;;;;5005742;28;20037;-61
2023/03/09 01:39:36;;;;;;;7.30;2.25;;;;;;;;;;5031058;28;20553;-60
2023/03/09 01:42:02;;;;;;;4.25;1.73;;;;;;;;;;5023403;28;20033;-60
2023/03/09 01:44:27;;;;;;;4.25;1.50;;;;;;;;;;5004079;28;20036;-61
2023/03/09 01:46:56;;;;;;;2.13;1.40;;;;;;;;;;5024411;28;20037;-60
2023/03/09 01:49:27;;;;;;;2.72;1.38;;;;;;;;;;5022886;28;20945;-60
2023/03/09 01:51:56;;;;;;;4.38;1.30;;;;;;;;;;5023036;28;20038;-60
2023/03/09 01:54:25;;;;;;;3.17;1.30;;;;;;;;;;5028510;28;20415;-60
2023/03/09 01:56:53;;;;;;;1.30;1.10;;;;;;;;;;5008666;28;20048;-60
2023/03/09 01:59:21;;;;;;;1.33;1.20;;;;;;;;;;5023322;28;20033;-60
2023/03/09 02:01:46;;;;;;;1.60;1.27;;;;;;;;;;5023732;28;20065;-60
2023/03/09 02:04:14;;;;;;;1.25;1.15;;;;;;;;;;5025501;28;20076;-60
2023/03/09 02:06:40;;;;;;;2.05;1.20;;;;;;;;;;5022867;28;20037;-60
2023/03/09 02:09:11;;;;;;;2.20;1.02;;;;;;;;;;5038094;28;20029;-59
2023/03/09 02:11:36;;;;;;;1.25;1.10;;;;;;;;;;5029918;28;20048;-59
2023/03/09 02:14:02;;;;;;;1.83;1.20;;;;;;;;;;5023269;28;20034;-60
2023/03/09 02:16:27;;;;;;;2.47;1.10;;;;;;;;;;5025044;28;20107;-60
2023/03/09 02:18:53;;;;;;;1.40;1.00;;;;;;;;;;5026435;28;20042;-61
2023/03/09 02:21:21;;;;;;;1.10;1.00;;;;;;;;;;5021812;28;20790;-60
2023/03/09 02:24:05;;;;;;;1.50;0.90;;;;;;;;;;5025241;28;20032;-59
2023/03/09 02:26:53;;;;;;;2.25;1.13;;;;;;;;;;5024179;28;20048;-60
2023/03/09 02:29:19;;;;;;;3.30;1.10;;;;;;;;;;5030176;28;20033;-60
2023/03/09 02:31:44;;;;;;;1.90;1.10;;;;;;;;;;5022625;28;20101;-59
2023/03/09 02:34:10;;;;;;;3.72;1.10;;;;;;;;;;5035435;28;20041;-60
2023/03/09 02:36:36;;;;;;;2.03;1.10;;;;;;;;;;5019157;28;20033;-60
2023/03/09 02:39:07;;;;;;;2.40;1.00;;;;;;;;;;5019174;28;20037;-60
2023/03/09 02:41:33;;;;;;;1.45;0.90;;;;;;;;;;5023323;28;20550;-60
2023/03/09 02:44:00;;;;;;;3.10;1.20;;;;;;;;;;5017262;28;20033;-59
2023/03/09 02:46:29;;;;;;;1.23;0.90;;;;;;;;;;5020680;28;20462;-59
2023/03/09 02:48:54;;;;;;;3.30;1.05;;;;;;;;;;5020605;28;20033;-60
2023/03/09 02:51:20;;;;;;;1.23;1.10;;;;;;;;;;5019618;28;20044;-59
2023/03/09 02:53:46;;;;;;;3.05;1.27;;;;;;;;;;5020050;28;20033;-60
2023/03/09 02:56:12;;;;;;;1.17;1.05;;;;;;;;;;5020915;28;20045;-59
2023/03/09 02:58:37;;;;;;;0.82;0.82;;;;;;;;;;5020646;28;20119;-59
2023/03/09 03:01:03;;;;;;;1.77;0.82;;;;;;;;;;5005788;28;20037;-59
2023/03/09 03:03:29;;;;;;;0.93;0.90;;;;;;;;;;5019110;28;20780;-59
2023/03/09 03:05:55;;;;;;;1.00;1.00;;;;;;;;;;5019053;28;20029;-59
2023/03/09 03:08:20;;;;;;;1.42;1.00;;;;;;;;;;5020872;28;20693;-59
2023/03/09 03:10:47;;;;;;;1.35;0.90;;;;;;;;;;5022859;28;20036;-60
2023/03/09 03:13:12;;;;;;;1.35;0.90;;;;;;;;;;5023756;28;20045;-58
2023/03/09 03:15:38;;;;;;;0.90;0.90;;;;;;;;;;5021083;28;20029;-60
2023/03/09 03:18:03;;;;;;;2.25;1.02;;;;;;;;;;5022759;28;20097;-60
2023/03/09 03:20:28;;;;;;;1.60;0.93;;;;;;;;;;5025586;28;20029;-60
2023/03/09 03:22:55;;;;;;;1.25;1.10;;;;;;;;;;5022316;28;20033;-61
2023/03/09 03:25:27;;;;;;;1.05;0.90;;;;;;;;;;5024695;28;20137;-61
2023/03/09 03:27:57;;;;;;;1.15;1.00;;;;;;;;;;5027083;28;20060;-60
2023/03/09 03:30:23;;;;;;;1.30;1.00;;;;;;;;;;5039804;28;20037;-59
2023/03/09 03:32:53;;;;;;;1.75;0.90;;;;;;;;;;5033038;28;20291;-58
2023/03/09 03:35:20;;;;;;;4.28;1.40;;;;;;;;;;5024876;28;20036;-59
2023/03/09 03:37:45;;;;;;;1.17;0.90;;;;;;;;;;5023848;28;20029;-58
2023/03/09 03:40:12;;;;;;;1.75;0.80;;;;;;;;;;5011523;28;20025;-55
2023/03/09 03:42:40;;;;;;;1.25;1.10;;;;;;;;;;5022203;28;20046;-57
2023/03/09 03:45:07;;;;;;;;;;;;;;;;;;5024089;28;20449;-59
2023/03/09 03:47:32;;;;;;;1.17;0.97;;;;;;;;;;5023743;28;19917;-54
2023/03/09 03:49:58;;;;;;;0.98;0.90;;;;;;;;;;5022982;28;20326;-58
2023/03/09 03:52:24;;;;;;;1.85;0.90;;;;;;;;;;5006558;28;20429;-57
2023/03/09 03:54:50;;;;;;;3.35;1.20;;;;;;;;;;5041636;28;20033;-57
2023/03/09 03:57:16;;;;;;;1.27;1.10;;;;;;;;;;5026938;28;20030;-61
2023/03/09 03:59:42;;;;;;;3.45;1.25;;;;;;;;;;5025620;28;20029;-58
2023/03/09 04:02:07;;;;;;;1.50;1.17;;;;;;;;;;5027791;28;20025;-58
2023/03/09 04:04:32;;;;;;;3.30;1.42;;;;;;;;;;5026381;28;20037;-59
2023/03/09 04:07:04;;;;;;;2.63;1.17;;;;;;;;;;5028297;28;20017;-58
2023/03/09 04:09:30;;;;;;;3.67;1.30;;;;;;;;;;5026129;28;20084;-58
2023/03/09 04:11:57;;;;;;;4.22;1.48;;;;;;;;;;5025590;28;20792;-60
2023/03/09 04:14:23;;;;;;;2.33;1.20;;;;;;;;;;5025101;28;20124;-62
2023/03/09 04:16:48;;;;;;;2.38;1.25;;;;;;;;;;5025700;28;20624;-63
2023/03/09 04:19:13;;;;;;;3.85;1.38;;;;;;;;;;5030632;28;20049;-62
2023/03/09 04:21:40;;;;;;;1.38;1.20;;;;;;;;;;5027564;28;20282;-62
2023/03/09 04:24:07;;;;;;;5.10;1.40;;;;;;;;;;5026994;28;20490;-62
2023/03/09 04:26:32;;;;;;;2.67;1.40;;;;;;;;;;5026125;28;20041;-62
2023/03/09 04:29:16;;;;;;;7.18;1.60;;;;;;;;;;5026037;28;20048;-61
2023/03/09 04:31:42;;;;;;;1.98;1.30;;;;;;;;;;5017054;28;20033;-61
2023/03/09 04:34:09;;;;;;;1.98;1.33;;;;;;;;;;5023267;28;20103;-61
2023/03/09 04:36:35;;;;;;;4.40;1.60;;;;;;;;;;5022863;28;20391;-61
2023/03/09 04:39:00;;;;;;;6.10;1.63;;;;;;;;;;5022852;28;20744;-62
2023/03/09 04:41:30;;;;;;;4.18;1.67;;;;;;;;;;5024967;28;20045;-62
2023/03/09 04:43:58;;;;;;;5.47;1.70;;;;;;;;;;5021647;28;20112;-62
2023/03/09 04:46:24;;;;;;;4.28;1.70;;;;;;;;;;5016819;28;20451;-61
2023/03/09 04:48:53;;;;;;;5.65;1.52;;;;;;;;;;5021569;28;20029;-63
2023/03/09 04:51:18;;;;;;;3.72;1.60;;;;;;;;;;5023109;28;20067;-61
2023/03/09 04:53:44;;;;;;;5.22;1.50;;;;;;;;;;5020201;28;20099;-61
2023/03/09 04:56:10;;;;;;;3.03;1.42;;;;;;;;;;5009822;28;20038;-61
2023/03/09 04:58:42;;;;;;;11.90;1.90;;;;;;;;;;5023227;28;20056;-60
2023/03/09 05:01:08;;;;;;;4.50;1.92;;;;;;;;;;5023364;28;20148;-61
2023/03/09 05:03:34;;;;;;;6.75;1.85;;;;;;;;;;5013569;28;20029;-61
2023/03/09 05:05:59;;;;;;;6.68;2.70;;;;;;;;;;5028421;28;20061;-61
2023/03/09 05:08:29;;;;;;;6.55;1.95;;;;;;;;;;5023357;28;20030;-60
2023/03/09 05:10:55;;;;;;;7.65;2.30;;;;;;;;;;5024618;28;20037;-62
2023/03/09 05:13:21;;;;;;;9.32;1.95;;;;;;;;;;5022502;28;20110;-62
2023/03/09 05:15:46;;;;;;;6.13;2.05;;;;;;;;;;5032332;28;20108;-61
2023/03/09 05:18:12;;;;;;;10.85;2.08;;;;;;;;;;5021410;28;20171;-61
2023/03/09 05:20:38;;;;;;;11.88;2.38;;;;;;;;;;5020558;28;20033;-61
2023/03/09 05:23:05;;;;;;;8.90;2.37;;;;;;;;;;5006441;28;20037;-61
2023/03/09 05:25:31;;;;;;;4.82;2.03;;;;;;;;;;5021690;28;20301;-61
2023/03/09 05:27:57;;;;;;;11.95;2.70;;;;;;;;;;5023640;28;20440;-61
2023/03/09 05:30:25;;;;;;;8.95;2.63;;;;;;;;;;5020112;28;20035;-60
2023/03/09 05:32:50;;;;;;;6.43;2.28;;;;;;;;;;5026123;28;20049;-60
2023/03/09 05:35:19;;;;;;;7.25;1.83;;;;;;;;;;5020697;28;20116;-60
2023/03/09 05:37:44;;;;;;;11.88;2.40;;;;;;;;;;5021848;28;20083;-59
2023/03/09 05:40:17;;;;;;;9.43;2.35;;;;;;;;;;5019052;28;20029;-61
2023/03/09 05:42:43;;;;;;;11.32;2.75;;;;;;;;;;5040755;28;20124;-59
2023/03/09 05:45:09;;;;;;;7.00;2.40;;;;;;;;;;5019759;28;20044;-59
2023/03/09 05:47:35;;;;;;;8.75;2.55;;;;;;;;;;5023439;28;20497;-61
2023/03/09 05:50:03;;;;;;;10.07;2.22;;;;;;;;;;5004374;28;20036;-61
2023/03/09 05:52:28;;;;;;;18.40;2.28;;;;;;;;;;5021447;28;20041;-59
2023/03/09 05:54:55;;;;;;;7.45;2.10;;;;;;;;;;5021976;28;20482;-60
2023/03/09 05:57:21;;;;;;;7.63;2.42;;;;;;;;;;5025234;28;20071;-60
2023/03/09 05:59:49;;;;;;;12.15;2.45;;;;;;;;;;5039107;28;20055;-59
2023/03/09 06:02:15;;;;;;;11.13;2.35;;;;;;;;;;5020342;28;20489;-60
2023/03/09 06:04:41;;;;;;;10.43;2.60;;;;;;;;;;5041081;28;20386;-60
2023/03/09 06:07:08;;;;;;;14.68;3.25;;;;;;;;;;5026236;28;20478;-60
2023/03/09 06:09:39;;;;;;;5.53;2.22;;;;;;;;;;5020808;28;20402;-62
2023/03/09 06:12:10;;;;;;;5.28;2.00;;;;;;;;;;5024348;28;20474;-59
2023/03/09 06:14:35;;;;;;;9.32;2.42;;;;;;;;;;5033670;28;20033;-61
2023/03/09 06:17:03;;;;;;;7.67;2.60;;;;;;;;;;5023406;28;20064;-60
2023/03/09 06:19:28;;;;;;;9.57;2.43;;;;;;;;;;5025314;28;20036;-61
2023/03/09 06:21:54;;;;;;;11.50;2.55;;;;;;;;;;5024494;28;20044;-60
2023/03/09 06:24:19;;;;;;;9.10;2.70;;;;;;;;;;5022333;28;20048;-59
2023/03/09 06:26:45;;;;;;;12.38;2.70;;;;;;;;;;5020121;28;20037;-61
2023/03/09 06:29:13;;;;;;;9.20;2.75;;;;;;;;;;5018290;28;20030;-60
2023/03/09 06:31:42;;;;;;;9.40;2.70;;;;;;;;;;5019484;28;20034;-60
2023/03/09 06:34:07;;;;;;;8.02;2.20;;;;;;;;;;5019946;28;20450;-60
2023/03/09 06:36:34;;;;;;;9.57;2.70;;;;;;;;;;5019255;28;20068;-60
2023/03/09 06:39:00;;;;;;;15.00;3.03;;;;;;;;;;5018269;28;20095;-61
2023/03/09 06:41:31;;;;;;;7.63;2.25;;;;;;;;;;5005640;28;20279;-65
2023/03/09 06:44:05;;;;;;;9.32;2.22;;;;;;;;;;5020424;28;20079;-58
2023/03/09 06:46:32;;;;;;;;;;;;;;;;;;5035805;28;20060;-62
2023/03/09 06:48:57;;;;;;;8.43;2.95;;;;;;;;;;5017834;28;19939;-63
2023/03/09 06:51:23;;;;;;;13.15;3.05;;;;;;;;;;5019707;28;20041;-60
2023/03/09 06:53:48;;;;;;;11.00;2.72;;;;;;;;;;5018280;28;20096;-61
2023/03/09 06:56:17;;;;;;;12.63;2.65;;;;;;;;;;5018283;28;20037;-59
2023/03/09 06:58:43;;;;;;;8.38;3.08;;;;;;;;;;5020317;28;20045;-59
2023/03/09 07:01:09;;;;;;;14.45;2.80;;;;;;;;;;5015556;28;20489;-61
2023/03/09 07:03:36;;;;;;;12.05;2.80;;;;;;;;;;4996046;28;20025;-60
2023/03/09 07:06:01;;;;;;;15.10;2.90;;;;;;;;;;5020020;28;20044;-59
2023/03/09 07:08:26;;;;;;;10.40;2.50;;;;;;;;;;5017247;28;20041;-60
2023/03/09 07:10:52;;;;;;;11.40;2.53;;;;;;;;;;5012581;28;20068;-62
2023/03/09 07:13:17;;;;;;;8.85;2.75;;;;;;;;;;5019308;28;20382;-61
2023/03/09 07:15:43;;;;;;;9.07;2.67;;;;;;;;;;5013734;28;20030;-60
2023/03/09 07:18:08;;;;;;;9.98;2.65;;;;;;;;;;5017160;28;20044;-60
2023/03/09 07:20:34;;;;;;;13.57;2.90;;;;;;;;;;5018355;28;20040;-60
2023/03/09 07:22:59;;;;;;;10.73;3.03;;;;;;;;;;5017950;28;20035;-60
2023/03/09 07:25:25;;;;;;;12.15;2.50;;;;;;;;;;5016295;28;20026;-62
2023/03/09 07:27:50;;;;;;;10.25;2.58;;;;;;;;;;5020875;28;20372;-62
2023/03/09 07:30:15;;;;;;;11.15;3.72;;;;;;;;;;5002475;28;20039;-59
2023/03/09 07:32:41;;;;;;;12.18;2.72;;;;;;;;;;5025062;28;20061;-59
2023/03/09 07:35:06;;;;;;;8.48;2.40;;;;;;;;;;5024148;28;20490;-61
2023/03/09 07:37:32;;;;;;;11.70;2.63;;;;;;;;;;5023003;28;20092;-60
2023/03/09 07:39:57;;;;;;;8.27;2.55;;;;;;;;;;5009641;28;20382;-60
2023/03/09 07:42:22;;;;;;;8.52;2.15;;;;;;;;;;5023931;28;20033;-59
2023/03/09 07:44:59;;;;;;;9.00;2.53;;;;;;;;;;5022829;28;20038;-58
2023/03/09 07:47:24;;;;;;;6.72;1.98;;;;;;;;;;5023185;28;20112;-60
2023/03/09 07:49:50;;;;;;;10.77;2.47;;;;;;;;;;5023352;28;20030;-59
2023/03/09 07:52:15;;;;;;;9.15;2.08;;;;;;;;;;5020639;28;20441;-58
2023/03/09 07:54:40;;;;;;;6.90;2.15;;;;;;;;;;5023442;28;20040;-59
2023/03/09 07:57:06;;;;;;;6.40;2.00;;;;;;;;;;5018933;28;20029;-58
2023/03/09 07:59:31;;;;;;;6.47;2.08;;;;;;;;;;5019924;28;20039;-59
2023/03/09 08:01:56;;;;;;;14.32;2.42;;;;;;;;;;5022653;28;20033;-61
2023/03/09 08:04:22;;;;;;;9.32;2.50;;;;;;;;;;5023657;28;20033;-59
2023/03/09 08:06:47;;;;;;;10.52;2.38;;;;;;;;;;5004643;28;20037;-59
2023/03/09 08:09:14;;;;;;;9.30;2.10;;;;;;;;;;5022989;28;20034;-60
2023/03/09 08:11:39;;;;;;;5.85;2.25;;;;;;;;;;5022281;28;20040;-61
2023/03/09 08:14:05;;;;;;;8.07;2.03;;;;;;;;;;5026112;28;20025;-60
2023/03/09 08:16:30;;;;;;;9.55;2.50;;;;;;;;;;5024787;28;20068;-60
2023/03/09 08:18:55;;;;;;;7.75;2.63;;;;;;;;;;5026622;28;20034;-61
2023/03/09 08:21:21;;;;;;;12.82;3.08;;;;;;;;;;5024172;28;20573;-60
2023/03/09 08:23:46;;;;;;;6.03;2.78;;;;;;;;;;5010252;28;20446;-60
2023/03/09 08:26:13;;;;;;;11.02;2.33;;;;;;;;;;5025081;28;20078;-59
2023/03/09 08:28:39;;;;;;;10.55;2.33;;;;;;;;;;5024918;28;20032;-60
2023/03/09 08:31:05;;;;;;;8.68;2.28;;;;;;;;;;5024817;28;20338;-61
2023/03/09 08:33:30;;;;;;;8.75;2.28;;;;;;;;;;5015955;28;20452;-59
2023/03/09 08:35:56;;;;;;;6.30;2.00;;;;;;;;;;5024706;28;20411;-59
2023/03/09 08:38:21;;;;;;;6.57;2.10;;;;;;;;;;5026664;28;20419;-60
2023/03/09 08:40:47;;;;;;;8.95;1.90;;;;;;;;;;5022983;28;20025;-61
2023/03/09 08:43:13;;;;;;;9.98;2.42;;;;;;;;;;5025306;28;20033;-62
2023/03/09 08:45:38;;;;;;;7.07;2.17;;;;;;;;;;5024542;28;20043;-60
2023/03/09 08:48:03;;;;;;;6.53;2.28;;;;;;;;;;5023894;28;20076;-62
2023/03/09 08:50:29;;;;;;;10.18;2.38;;;;;;;;;;5022919;28;20037;-59
2023/03/09 08:52:55;;;;;;;7.18;1.60;;;;;;;;;;5021393;28;20048;-60
2023/03/09 08:55:21;;;;;;;7.93;1.70;;;;;;;;;;5022254;28;20128;-61
2023/03/09 08:57:46;;;;;;;8.38;2.10;;;;;;;;;;5023724;28;20034;-60
2023/03/09 09:00:12;;;;;;;14.25;2.17;;;;;;;;;;5022552;28;20114;-61
2023/03/09 09:02:37;;;;;;;10.63;1.75;;;;;;;;;;5021864;28;20036;-60
2023/03/09 09:05:03;;;;;;;9.27;1.90;;;;;;;;;;5023696;28;20030;-60
2023/03/09 09:07:29;;;;;;;6.85;1.83;;;;;;;;;;5022856;28;20033;-60
2023/03/09 09:09:55;;;;;;;12.35;2.25;;;;;;;;;;5025522;28;20105;-60
2023/03/09 09:12:21;;;;;;;10.68;1.80;;;;;;;;;;5021727;28;20040;-60
2023/03/09 09:14:46;;;;;;;6.82;2.03;;;;;;;;;;5025424;28;20635;-60
2023/03/09 09:17:11;;;;;;;6.65;1.92;;;;;;;;;;5023497;28;20037;-59
2023/03/09 09:19:40;;;;;;;8.23;1.60;;;;;;;;;;5022585;28;20497;-61
2023/03/09 09:22:06;;;;;;;11.48;2.42;;;;;;;;;;5023078;28;20091;-60
2023/03/09 09:24:35;;;;;;;9.63;2.20;;;;;;;;;;5021231;28;20029;-59
2023/03/09 09:27:00;;;;;;;13.52;2.30;;;;;;;;;;5023873;28;20504;-59
2023/03/09 09:29:26;;;;;;;9.18;2.65;;;;;;;;;;5025413;28;20037;-58
2023/03/09 09:31:52;;;;;;;8.20;2.00;;;;;;;;;;5025209;28;20038;-59
2023/03/09 09:34:18;;;;;;;6.22;1.73;;;;;;;;;;5014957;28;20777;-58
2023/03/09 09:36:44;;;;;;;5.65;2.33;;;;;;;;;;5025119;28;20030;-60
2023/03/09 09:39:12;;;;;;;7.65;2.03;;;;;;;;;;5023141;28;20041;-60
2023/03/09 09:41:55;;;;;;;7.28;1.70;;;;;;;;;;5024136;28;20071;-58
2023/03/09 09:44:20;;;;;;;11.70;2.08;;;;;;;;;;5022175;28;20034;-60
2023/03/09 09:46:46;;;;;;;3.47;1.40;;;;;;;;;;5023182;28;20037;-59
2023/03/09 09:49:22;;;;;;;6.20;1.50;;;;;;;;;;5020410;28;20037;-61
2023/03/09 09:51:57;;;;;;;6.35;2.20;;;;;;;;;;5023802;28;20045;-59
2023/03/09 09:54:28;;;;;;;5.43;1.65;;;;;;;;;;5023764;28;20513;-61
2023/03/09 09:56:59;;;;;;;6.20;1.50;;;;;;;;;;5025049;28;20131;-59
2023/03/09 09:59:47;;;;;;;4.43;1.70;;;;;;;;;;5022130;28;20048;-60
2023/03/09 10:02:20;;;;;;;5.10;1.70;;;;;;;;;;5023406;28;20484;-60
2023/03/09 10:04:46;;;;;;;4.70;2.20;;;;;;;;;;5023156;28;20037;-61
2023/03/09 10:07:16;;;;;;;4.87;1.73;;;;;;;;;;5022990;28;20401;-62
2023/03/09 10:09:43;;;;;;;5.32;1.50;;;;;;;;;;5021342;28;20090;-60
2023/03/09 10:12:10;;;;;;;3.17;1.35;;;;;;;;;;5038930;28;20525;-60
2023/03/09 10:14:41;;;;;;;2.80;1.50;;;;;;;;;;5022685;28;20807;-59
2023/03/09 10:17:30;;;;;;;4.05;1.50;;;;;;;;;;5022865;28;20026;-60
2023/03/09 10:19:57;;;;;;;5.28;1.70;;;;;;;;;;5017605;28;20041;-61
2023/03/09 10:22:24;;;;;;;4.07;1.60;;;;;;;;;;5023368;28;20067;-59
2023/03/09 10:24:50;;;;;;;7.60;1.80;;;;;;;;;;5025188;28;20068;-60
2023/03/09 10:27:31;;;;;;;8.07;1.92;;;;;;;;;;5020904;28;20044;-59
2023/03/09 10:30:02;;;;;;;4.07;1.52;;;;;;;;;;5022124;28;20036;-61
2023/03/09 10:32:39;;;;;;;5.28;1.65;;;;;;;;;;5024994;28;20045;-61
2023/03/09 10:35:20;;;;;;;6.00;1.30;;;;;;;;;;5019867;28;20569;-58
2023/03/09 10:37:48;;;;;;;4.03;1.90;;;;;;;;;;5023386;28;20029;-57
2023/03/09 10:40:17;;;;;;;4.43;1.70;;;;;;;;;;5022491;28;20061;-59
2023/03/09 10:42:42;;;;;;;7.72;2.15;;;;;;;;;;5023421;28;20037;-59
2023/03/09 10:45:24;;;;;;;4.70;1.60;;;;;;;;;;5020075;28;20034;-59
2023/03/09 10:47:56;;;;;;;3.60;1.70;;;;;;;;;;5024769;28;20037;-59
2023/03/09 10:50:23;;;;;;;5.28;1.50;;;;;;;;;;5021419;28;20044;-59
2023/03/09 10:52:49;;;;;;;3.53;1.63;;;;;;;;;;5021979;28;20041;-60
2023/03/09 10:55:29;;;;;;;6.80;1.92;;;;;;;;;;5022940;28;20041;-59
2023/03/09 10:57:56;;;;;;;4.15;1.85;;;;;;;;;;5021990;28;20116;-58
2023/03/09 11:00:21;;;;;;;2.88;1.50;;;;;;;;;;5022532;28;20119;-59
2023/03/09 11:02:51;;;;;;;5.07;1.70;;;;;;;;;;5022018;28;20112;-59
2023/03/09 11:05:24;;;;;;;5.90;1.80;;;;;;;;;;5012082;28;20683;-59
2023/03/09 11:07:50;;;;;;;8.00;1.75;;;;;;;;;;5010798;28;20065;-60
2023/03/09 11:10:32;;;;;;;5.60;2.30;;;;;;;;;;5008966;28;20132;-60
2023/03/09 11:12:58;;;;;;;3.65;1.42;;;;;;;;;;5008985;28;20037;-59
2023/03/09 11:15:24;;;;;;;4.78;1.80;;;;;;;;;;5013215;28;20042;-58
2023/03/09 11:17:49;;;;;;;3.67;1.60;;;;;;;;;;5002573;28;21360;-60
2023/03/09 11:20:21;;;;;;;2.88;1.50;;;;;;;;;;5012024;28;20025;-58
2023/03/09 11:22:49;;;;;;;4.78;1.60;;;;;;;;;;5010571;28;20037;-57
2023/03/09 11:25:24;;;;;;;4.93;1.58;;;;;;;;;;5012059;28;20049;-54
2023/03/09 11:27:54;;;;;;;2.25;1.45;;;;;;;;;;5021280;28;20036;-59
2023/03/09 11:30:21;;;;;;;7.45;1.45;;;;;;;;;;5023064;28;20457;-54
2023/03/09 11:32:47;;;;;;;3.85;1.10;;;;;;;;;;5021521;28;20073;-57
2023/03/09 11:35:14;;;;;;;4.22;1.48;;;;;;;;;;5023831;28;20145;-56
2023/03/09 11:37:47;;;;;;;3.53;1.30;;;;;;;;;;5021199;28;20025;-57
2023/03/09 11:40:19;;;;;;;2.63;1.23;;;;;;;;;;5022642;28;20033;-53
2023/03/09 11:42:50;;;;;;;8.57;2.03;;;;;;;;;;5020216;28;20045;-53
2023/03/09 11:45:20;;;;;;;4.50;1.45;;;;;;;;;;5024760;28;20039;-55
2023/03/09 11:47:48;;;;;;;2.75;1.30;;;;;;;;;;5024018;28;20037;-58
2023/03/09 11:50:13;;;;;;;6.60;1.80;;;;;;;;;;5024747;28;20498;-60
2023/03/09 11:52:43;;;;;;;6.35;1.80;;;;;;;;;;5025171;28;20043;-55
2023/03/09 11:55:17;;;;;;;4.43;1.52;;;;;;;;;;5009072;28;20053;-56
2023/03/09 11:57:44;;;;;;;5.03;1.40;;;;;;;;;;5014110;28;20025;-56
2023/03/09 12:00:12;;;;;;;7.72;1.60;;;;;;;;;;5014862;28;20459;-58
2023/03/09 12:02:53;;;;;;;6.15;1.80;;;;;;;;;;5013417;28;20471;-55
2023/03/09 12:05:18;;;;;;;3.67;1.20;;;;;;;;;;5013069;28;20597;-56
2023/03/09 12:07:54;;;;;;;5.57;1.70;;;;;;;;;;5039729;28;20786;-55
2023/03/09 12:10:28;;;;;;;4.25;1.45;;;;;;;;;;5024038;28;20049;-55
2023/03/09 12:13:08;;;;;;;4.28;1.30;;;;;;;;;;5026906;28;20044;-54
2023/03/09 12:15:33;;;;;;;3.10;1.30;;;;;;;;;;5018711;28;20053;-57
2023/03/09 12:18:00;;;;;;;6.50;1.50;;;;;;;;;;5029687;28;20092;-56
2023/03/09 12:20:37;;;;;;;5.18;1.52;;;;;;;;;;5025654;28;20144;-56
2023/03/09 12:23:02;;;;;;;;;;;;;;;;;;5028051;28;20033;-54
2023/03/09 12:25:28;;;;;;;2.13;1.03;;;;;;;;;;5028216;28;20385;-58
2023/03/09 12:27:54;;;;;;;2.22;1.10;;;;;;;;;;5026425;28;20036;-54
2023/03/09 12:30:33;;;;;;;3.30;1.20;;;;;;;;;;5026483;28;20553;-56
2023/03/09 12:33:00;;;;;;;3.97;1.45;;;;;;;;;;5027296;28;20033;-53
2023/03/09 12:35:26;;;;;;;2.92;1.40;;;;;;;;;;5029490;28;20034;-56
2023/03/09 12:37:51;;;;;;;3.22;0.93;;;;;;;;;;5028790;28;20089;-62
2023/03/09 12:40:16;;;;;;;2.70;0.98;;;;;;;;;;5026609;28;20542;-58
2023/03/09 12:42:43;;;;;;;2.17;1.10;;;;;;;;;;5027777;28;20095;-56
2023/03/09 12:45:14;;;;;;;4.65;1.40;;;;;;;;;;5025986;28;20014;-59
2023/03/09 12:47:51;;;;;;;4.47;1.65;;;;;;;;;;5027785;28;20167;-59
2023/03/09 12:50:16;;;;;;;2.05;1.17;;;;;;;;;;5026646;28;20041;-60
2023/03/09 12:53:00;;;;;;;1.88;1.00;;;;;;;;;;5026385;28;20042;-58
2023/03/09 12:55:43;;;;;;;5.38;1.30;;;;;;;;;;5016805;28;20033;-56
2023/03/09 13:01:00;;;;;;;2.35;1.13;;;;;;;;;;5025977;28;20131;-60
2023/03/09 13:03:40;;;;;;;4.43;1.30;;;;;;;;;;5034254;28;20403;-59
2023/03/09 13:06:19;;;;;;;2.95;1.20;;;;;;;;;;5025031;28;20477;-57
2023/03/09 13:08:49;;;;;;;4.00;1.42;;;;;;;;;;5028064;28;20116;-59
2023/03/09 13:11:23;;;;;;;3.92;1.35;;;;;;;;;;5024780;28;20034;-54
2023/03/09 13:13:49;;;;;;;2.42;1.10;;;;;;;;;;5027026;28;20030;-58
2023/03/09 13:16:34;;;;;;;5.13;1.67;;;;;;;;;;5025297;28;20876;-59
2023/03/09 13:19:23;;;;;;;3.53;1.35;;;;;;;;;;5027504;28;20029;-58
2023/03/09 13:21:48;;;;;;;3.58;1.35;;;;;;;;;;5026647;28;20034;-59
2023/03/09 13:24:18;;;;;;;5.97;1.60;;;;;;;;;;5026480;28;20044;-58
2023/03/09 13:26:45;;;;;;;4.45;1.55;;;;;;;;;;5026919;28;20036;-59
2023/03/09 13:29:14;;;;;;;3.78;1.20;;;;;;;;;;5025810;28;20063;-58
2023/03/09 13:31:40;;;;;;;5.75;1.23;;;;;;;;;;5025494;28;20041;-58
2023/03/09 13:34:11;;;;;;;5.53;2.17;;;;;;;;;;5027149;28;20205;-57
2023/03/09 13:36:36;;;;;;;5.45;1.40;;;;;;;;;;5025391;28;20029;-59
2023/03/09 13:39:05;;;;;;;7.05;1.92;;;;;;;;;;5026812;28;20730;-59
2023/03/09 13:41:30;;;;;;;7.90;1.77;;;;;;;;;;5027642;28;20030;-57
2023/03/09 13:43:58;;;;;;;5.65;1.70;;;;;;;;;;5025398;28;20094;-58
2023/03/09 13:46:28;;;;;;;7.60;2.10;;;;;;;;;;5043416;28;20441;-60
2023/03/09 13:48:55;;;;;;;5.72;1.80;;;;;;;;;;5028208;28;20029;-59
2023/03/09 13:51:20;;;;;;;;;;;;;;;;;;5025462;28;20029;-58
2023/03/09 13:53:46;;;;;;;8.43;2.00;;;;;;;;;;5025209;28;19916;-57
2023/03/09 13:56:13;;;;;;;5.57;1.73;;;;;;;;;;5023414;28;20041;-60
2023/03/09 13:58:40;;;;;;;7.03;1.60;;;;;;;;;;5025185;28;20475;-58
2023/03/09 14:01:05;;;;;;;5.63;1.90;;;;;;;;;;5024070;28;20081;-58
2023/03/09 14:03:32;;;;;;;6.53;2.10;;;;;;;;;;5030008;28;20116;-60
2023/03/09 14:05:58;;;;;;;;;;;;;;;;;;5024303;28;20144;-62
2023/03/09 14:08:23;;;;;;;6.03;1.40;;;;;;;;;;5024619;28;19912;-58
2023/03/09 14:10:49;;;;;;;4.88;1.65;;;;;;;;;;5025228;28;20045;-57
2023/03/09 14:13:19;;;;;;;6.13;1.88;;;;;;;;;;5025220;28;20148;-57
2023/03/09 14:15:47;;;;;;;7.05;1.92;;;;;;;;;;5023536;28;20119;-55
2023/03/09 14:18:39;;;;;;;6.70;1.88;;;;;;;;;;5022093;28;20570;-57
2023/03/09 14:21:16;;;;;;;7.43;1.67;;;;;;;;;;5022480;28;20041;-57
2023/03/09 14:23:44;;;;;;;5.25;1.70;;;;;;;;;;5024622;28;20033;-57
2023/03/09 14:26:21;;;;;;;5.60;1.70;;;;;;;;;;5025298;28;20030;-59
2023/03/09 14:28:59;;;;;;;4.40;1.60;;;;;;;;;;5024804;28;20139;-58
2023/03/09 14:31:24;;;;;;;7.38;2.05;;;;;;;;;;5031285;28;20053;-58
2023/03/09 14:33:56;;;;;;;8.13;1.90;;;;;;;;;;5025138;28;20467;-58
2023/03/09 14:36:21;;;;;;;7.38;2.20;;;;;;;;;;5024712;28;20025;-57
2023/03/09 14:38:51;;;;;;;8.23;2.17;;;;;;;;;;5026359;28;20030;-58
2023/03/09 14:41:19;;;;;;;6.47;1.88;;;;;;;;;;5022401;28;20045;-56
2023/03/09 14:43:44;;;;;;;5.85;1.70;;;;;;;;;;5022693;28;20030;-53
2023/03/09 14:46:17;;;;;;;5.97;2.20;;;;;;;;;;5023176;28;20029;-56
2023/03/09 14:48:46;;;;;;;5.78;1.80;;;;;;;;;;5022247;28;20065;-59
2023/03/09 14:51:14;;;;;;;7.57;2.10;;;;;;;;;;5021949;28;20022;-60